createdAt,value
2019-03-29T00:00:23.721Z,2.15
2019-03-29T00:01:01.032Z,2.25
2019-03-29T00:01:36.542Z,2.85
2019-03-29T00:02:11.057Z,2.58
2019-03-29T00:02:44.401Z,2.83
2019-03-29T00:03:17.418Z,2.50
2019-03-29T00:03:50.476Z,2.55
2019-03-29T00:04:23.819Z,2.37
2019-03-29T00:04:57.191Z,2.42
2019-03-29T00:05:30.570Z,3.00
2019-03-29T00:06:04.238Z,2.50
2019-03-29T00:06:37.606Z,2.70
2019-03-29T00:07:10.679Z,2.80
2019-03-29T00:07:43.713Z,2.85
2019-03-29T00:08:17.077Z,2.50
2019-03-29T00:08:50.094Z,2.42
2019-03-29T00:09:23.189Z,2.95
2019-03-29T00:09:56.202Z,2.20
2019-03-29T00:10:29.970Z,2.50
2019-03-29T00:11:02.997Z,2.30
2019-03-29T00:11:36.342Z,3.12
2019-03-29T00:12:09.723Z,2.50
2019-03-29T00:12:42.718Z,2.17
2019-03-29T00:13:16.208Z,2.60
2019-03-29T00:13:50.034Z,2.67
2019-03-29T00:14:23.787Z,2.35
2019-03-29T00:14:56.844Z,2.35
2019-03-29T00:15:29.967Z,2.72
2019-03-29T00:16:02.986Z,2.80
2019-03-29T00:16:36.363Z,2.90
2019-03-29T00:17:09.680Z,2.70
2019-03-29T00:17:43.988Z,2.90
2019-03-29T00:18:17.135Z,3.55
2019-03-29T00:18:50.162Z,3.50
2019-03-29T00:19:23.189Z,3.50
2019-03-29T00:19:56.208Z,3.98
2019-03-29T00:20:29.272Z,3.75
2019-03-29T00:21:02.725Z,3.65
2019-03-29T00:21:35.736Z,3.72
2019-03-29T00:22:08.801Z,3.05
2019-03-29T00:22:42.141Z,3.05
2019-03-29T00:23:15.152Z,3.98
2019-03-29T00:23:49.028Z,3.45
2019-03-29T00:24:22.102Z,3.72
2019-03-29T00:24:55.135Z,3.55
2019-03-29T00:25:28.161Z,3.92
2019-03-29T00:26:01.558Z,3.30
2019-03-29T00:26:34.604Z,4.15
2019-03-29T00:27:08.026Z,3.65
2019-03-29T00:27:41.360Z,3.65
2019-03-29T00:28:14.772Z,3.70
2019-03-29T00:28:47.800Z,3.20
2019-03-29T00:29:21.229Z,3.42
2019-03-29T00:29:55.272Z,2.62
2019-03-29T00:30:29.181Z,2.47
2019-03-29T00:31:02.206Z,2.92
2019-03-29T00:31:35.263Z,2.12
2019-03-29T00:32:08.617Z,2.40
2019-03-29T00:32:41.997Z,2.30
2019-03-29T00:33:15.024Z,2.77
2019-03-29T00:33:48.042Z,2.33
2019-03-29T00:34:21.486Z,2.70
2019-03-29T00:34:54.594Z,2.00
2019-03-29T00:35:27.638Z,2.77
2019-03-29T00:36:00.667Z,2.35
2019-03-29T00:36:33.687Z,2.52
2019-03-29T00:37:07.111Z,2.90
2019-03-29T00:37:52.748Z,2.70
2019-03-29T00:38:16.131Z,2.62
2019-03-29T00:38:49.197Z,2.20
2019-03-29T00:39:22.871Z,2.50
2019-03-29T00:39:56.244Z,2.98
2019-03-29T00:40:29.565Z,2.65
2019-03-29T00:41:02.975Z,2.55
2019-03-29T00:41:35.996Z,2.20
2019-03-29T00:42:09.143Z,2.42
2019-03-29T00:42:42.971Z,2.27
2019-03-29T00:43:16.476Z,2.50
2019-03-29T00:43:50.291Z,2.42
2019-03-29T00:44:24.065Z,2.10
2019-03-29T00:44:57.510Z,2.65
2019-03-29T00:45:30.956Z,3.15
2019-03-29T00:46:03.980Z,2.20
2019-03-29T00:46:37.188Z,2.60
2019-03-29T00:47:10.954Z,2.52
2019-03-29T00:47:44.195Z,2.55
2019-03-29T00:48:17.213Z,2.55
2019-03-29T00:48:50.608Z,2.80
2019-03-29T00:49:23.618Z,2.58
2019-03-29T00:49:56.644Z,2.00
2019-03-29T00:50:29.682Z,2.40
2019-03-29T00:51:02.699Z,1.95
2019-03-29T00:51:36.083Z,2.75
2019-03-29T00:52:09.113Z,2.27
2019-03-29T00:52:43.016Z,2.37
2019-03-29T00:53:16.192Z,2.05
2019-03-29T00:53:49.638Z,2.50
2019-03-29T00:54:22.773Z,2.40
2019-03-29T00:54:55.816Z,2.37
2019-03-29T00:55:28.847Z,2.30
2019-03-29T00:56:01.872Z,2.50
2019-03-29T00:56:34.898Z,2.12
2019-03-29T00:57:08.278Z,2.02
2019-03-29T00:57:41.304Z,2.70
2019-03-29T00:58:14.328Z,2.05
2019-03-29T00:58:48.727Z,2.40
2019-03-29T00:59:21.798Z,2.65
2019-03-29T00:59:54.818Z,2.35
2019-03-29T01:00:31.190Z,2.98
2019-03-29T01:01:03.386Z,2.75
2019-03-29T01:01:36.413Z,2.90
2019-03-29T01:02:09.451Z,2.70
2019-03-29T01:02:42.970Z,3.22
2019-03-29T01:03:16.002Z,2.45
2019-03-29T01:03:49.444Z,2.80
2019-03-29T01:04:23.333Z,2.70
2019-03-29T01:04:56.359Z,2.87
2019-03-29T01:05:29.743Z,3.00
2019-03-29T01:06:02.770Z,3.37
2019-03-29T01:06:36.536Z,2.85
2019-03-29T01:07:09.550Z,2.50
2019-03-29T01:07:42.558Z,2.08
2019-03-29T01:08:16.331Z,2.25
2019-03-29T01:08:49.728Z,2.30
2019-03-29T01:09:22.741Z,2.70
2019-03-29T01:09:56.268Z,2.67
2019-03-29T01:10:29.914Z,2.75
2019-03-29T01:11:03.306Z,2.40
2019-03-29T01:11:36.326Z,2.40
2019-03-29T01:12:09.359Z,2.55
2019-03-29T01:12:42.360Z,2.98
2019-03-29T01:13:15.680Z,2.60
2019-03-29T01:13:49.175Z,3.25
2019-03-29T01:14:22.649Z,3.10
2019-03-29T01:14:56.003Z,3.17
2019-03-29T01:15:29.164Z,2.90
2019-03-29T01:16:02.208Z,3.10
2019-03-29T01:16:35.232Z,2.67
2019-03-29T01:17:08.256Z,2.72
2019-03-29T01:17:41.271Z,2.40
2019-03-29T01:18:14.659Z,2.70
2019-03-29T01:18:47.684Z,3.20
2019-03-29T01:19:20.707Z,2.80
2019-03-29T01:19:54.096Z,3.10
2019-03-29T01:20:27.479Z,3.10
2019-03-29T01:21:00.535Z,2.87
2019-03-29T01:21:33.546Z,3.17
2019-03-29T01:22:06.667Z,3.12
2019-03-29T01:22:39.685Z,3.17
2019-03-29T01:23:13.099Z,2.67
2019-03-29T01:23:46.468Z,2.95
2019-03-29T01:24:20.527Z,3.02
2019-03-29T01:24:53.992Z,3.00
2019-03-29T01:25:27.441Z,2.85
2019-03-29T01:26:01.175Z,3.25
2019-03-29T01:26:34.472Z,2.62
2019-03-29T01:27:07.796Z,3.22
2019-03-29T01:27:40.810Z,3.33
2019-03-29T01:28:14.224Z,2.62
2019-03-29T01:28:47.240Z,3.30
2019-03-29T01:29:20.577Z,3.00
2019-03-29T01:29:53.954Z,3.20
2019-03-29T01:30:28.036Z,3.15
2019-03-29T01:31:01.062Z,3.30
2019-03-29T01:31:34.929Z,2.80
2019-03-29T01:32:07.992Z,2.70
2019-03-29T01:32:41.022Z,2.98
2019-03-29T01:33:14.032Z,2.67
2019-03-29T01:33:47.426Z,2.70
2019-03-29T01:34:20.450Z,3.05
2019-03-29T01:34:53.483Z,3.00
2019-03-29T01:35:26.627Z,3.10
2019-03-29T01:36:01.303Z,3.20
2019-03-29T01:36:35.436Z,2.80
2019-03-29T01:37:08.480Z,3.40
2019-03-29T01:37:41.608Z,3.27
2019-03-29T01:38:21.690Z,3.20
2019-03-29T01:38:49.484Z,3.20
2019-03-29T01:39:22.498Z,3.35
2019-03-29T01:39:55.531Z,2.80
2019-03-29T01:40:28.976Z,2.65
2019-03-29T01:41:01.996Z,2.80
2019-03-29T01:41:35.399Z,3.30
2019-03-29T01:42:08.789Z,3.27
2019-03-29T01:42:41.816Z,3.20
2019-03-29T01:43:15.225Z,3.20
2019-03-29T01:43:48.696Z,3.30
2019-03-29T01:44:21.720Z,2.85
2019-03-29T01:44:54.760Z,3.12
2019-03-29T01:45:28.785Z,3.10
2019-03-29T01:46:01.811Z,2.90
2019-03-29T01:46:35.264Z,3.35
2019-03-29T01:47:08.735Z,3.02
2019-03-29T01:47:42.095Z,3.00
2019-03-29T01:48:15.231Z,2.83
2019-03-29T01:48:49.051Z,3.40
2019-03-29T01:49:22.763Z,3.42
2019-03-29T01:49:55.886Z,3.30
2019-03-29T01:50:29.210Z,3.08
2019-03-29T01:51:02.312Z,2.77
2019-03-29T01:51:35.701Z,2.70
2019-03-29T01:52:08.724Z,3.60
2019-03-29T01:52:41.730Z,2.85
2019-03-29T01:53:14.738Z,2.90
2019-03-29T01:53:47.766Z,3.15
2019-03-29T01:54:20.815Z,3.00
2019-03-29T01:54:53.880Z,3.17
2019-03-29T01:55:27.206Z,3.00
2019-03-29T01:56:00.215Z,3.30
2019-03-29T01:56:33.243Z,3.27
2019-03-29T01:57:06.982Z,3.12
2019-03-29T01:57:40.057Z,3.30
2019-03-29T01:58:13.506Z,3.08
2019-03-29T01:58:46.527Z,3.30
2019-03-29T01:59:19.533Z,3.17
2019-03-29T01:59:52.936Z,3.33
2019-03-29T02:00:30.503Z,3.30
2019-03-29T02:01:03.786Z,3.25
2019-03-29T02:01:36.803Z,3.25
2019-03-29T02:02:09.834Z,3.10
2019-03-29T02:02:43.008Z,3.05
2019-03-29T02:03:16.033Z,4.03
2019-03-29T02:03:49.429Z,3.00
2019-03-29T02:04:22.896Z,3.22
2019-03-29T02:04:56.252Z,3.65
2019-03-29T02:05:30.128Z,3.20
2019-03-29T02:06:03.491Z,3.67
2019-03-29T02:06:36.515Z,3.40
2019-03-29T02:07:09.541Z,3.60
2019-03-29T02:07:42.583Z,3.60
2019-03-29T02:08:15.641Z,3.30
2019-03-29T02:08:49.147Z,3.30
2019-03-29T02:09:22.181Z,3.80
2019-03-29T02:09:55.220Z,3.70
2019-03-29T02:10:28.944Z,3.35
2019-03-29T02:11:01.960Z,3.98
2019-03-29T02:11:35.038Z,3.27
2019-03-29T02:12:08.378Z,3.45
2019-03-29T02:12:41.404Z,2.98
2019-03-29T02:13:14.414Z,3.67
2019-03-29T02:13:48.112Z,3.40
2019-03-29T02:14:21.141Z,3.50
2019-03-29T02:14:54.177Z,3.90
2019-03-29T02:15:27.190Z,3.60
2019-03-29T02:16:00.510Z,3.40
2019-03-29T02:16:33.525Z,3.80
2019-03-29T02:17:06.571Z,4.20
2019-03-29T02:17:39.595Z,3.50
2019-03-29T02:18:13.308Z,3.85
2019-03-29T02:18:47.023Z,3.50
2019-03-29T02:19:20.048Z,4.50
2019-03-29T02:19:53.046Z,3.85
2019-03-29T02:20:26.075Z,3.85
2019-03-29T02:20:59.446Z,3.77
2019-03-29T02:21:32.802Z,4.05
2019-03-29T02:22:05.822Z,3.60
2019-03-29T02:22:39.154Z,3.50
2019-03-29T02:23:12.955Z,3.83
2019-03-29T02:23:46.331Z,4.10
2019-03-29T02:24:19.345Z,4.37
2019-03-29T02:24:52.380Z,3.33
2019-03-29T02:25:25.777Z,3.70
2019-03-29T02:25:58.783Z,4.15
2019-03-29T02:26:31.802Z,4.35
2019-03-29T02:27:04.872Z,3.98
2019-03-29T02:27:37.900Z,4.03
2019-03-29T02:28:10.922Z,4.08
2019-03-29T02:28:44.851Z,4.20
2019-03-29T02:29:18.098Z,4.40
2019-03-29T02:29:51.113Z,5.20
2019-03-29T02:30:24.144Z,4.70
2019-03-29T02:30:57.217Z,5.03
2019-03-29T02:31:30.206Z,5.20
2019-03-29T02:32:03.242Z,5.75
2019-03-29T02:32:37.144Z,5.10
2019-03-29T02:33:10.624Z,5.08
2019-03-29T02:33:44.092Z,5.08
2019-03-29T02:34:17.102Z,5.75
2019-03-29T02:34:50.273Z,6.67
2019-03-29T02:35:23.301Z,7.00
2019-03-29T02:35:56.330Z,7.85
2019-03-29T02:36:29.736Z,8.23
2019-03-29T02:37:03.131Z,7.53
2019-03-29T02:37:36.173Z,7.80
2019-03-29T02:38:09.307Z,7.95
2019-03-29T02:38:55.122Z,7.85
2019-03-29T02:39:17.188Z,9.18
2019-03-29T02:39:50.213Z,8.55
2019-03-29T02:40:23.237Z,10.28
2019-03-29T02:40:56.306Z,10.00
2019-03-29T02:41:29.565Z,9.75
2019-03-29T02:42:02.583Z,8.90
2019-03-29T02:42:35.597Z,9.20
2019-03-29T02:43:10.525Z,8.60
2019-03-29T02:43:43.462Z,8.55
2019-03-29T02:44:16.605Z,8.35
2019-03-29T02:44:49.623Z,8.13
2019-03-29T02:45:23.041Z,7.72
2019-03-29T02:45:57.609Z,6.75
2019-03-29T02:46:30.780Z,7.83
2019-03-29T02:47:03.933Z,8.25
2019-03-29T02:47:36.971Z,6.53
2019-03-29T02:48:10.604Z,6.47
2019-03-29T02:48:44.465Z,6.85
2019-03-29T02:49:17.777Z,5.87
2019-03-29T02:49:51.135Z,6.28
2019-03-29T02:50:24.151Z,6.47
2019-03-29T02:50:57.176Z,5.83
2019-03-29T02:51:30.214Z,5.90
2019-03-29T02:52:03.491Z,5.78
2019-03-29T02:52:36.540Z,6.10
2019-03-29T02:53:09.565Z,5.70
2019-03-29T02:53:42.593Z,5.55
2019-03-29T02:54:16.080Z,5.20
2019-03-29T02:54:49.110Z,5.28
2019-03-29T02:55:22.493Z,5.90
2019-03-29T02:55:56.284Z,6.80
2019-03-29T02:56:29.299Z,6.03
2019-03-29T02:57:02.325Z,7.42
2019-03-29T02:57:35.371Z,7.17
2019-03-29T02:58:08.391Z,8.23
2019-03-29T02:58:41.784Z,7.67
2019-03-29T02:59:14.804Z,7.08
2019-03-29T02:59:48.249Z,7.05
2019-03-29T03:00:21.585Z,6.95
2019-03-29T03:00:54.613Z,5.75
2019-03-29T03:01:27.636Z,5.65
2019-03-29T03:02:00.918Z,6.50
2019-03-29T03:02:33.946Z,4.60
2019-03-29T03:03:06.959Z,5.22
2019-03-29T03:03:39.997Z,4.83
2019-03-29T03:04:13.363Z,4.15
2019-03-29T03:04:46.397Z,5.30
2019-03-29T03:05:19.408Z,4.50
2019-03-29T03:05:52.840Z,4.53
2019-03-29T03:06:25.875Z,4.83
2019-03-29T03:06:59.103Z,4.90
2019-03-29T03:07:32.141Z,4.50
2019-03-29T03:08:05.136Z,4.65
2019-03-29T03:08:38.489Z,5.30
2019-03-29T03:09:13.910Z,5.05
2019-03-29T03:09:46.343Z,4.62
2019-03-29T03:10:19.568Z,5.08
2019-03-29T03:10:52.592Z,4.45
2019-03-29T03:11:25.636Z,5.15
2019-03-29T03:11:58.664Z,4.85
2019-03-29T03:12:31.684Z,5.58
2019-03-29T03:13:05.023Z,5.75
2019-03-29T03:13:38.045Z,6.12
2019-03-29T03:14:11.489Z,6.35
2019-03-29T03:14:44.529Z,6.47
2019-03-29T03:15:17.556Z,6.62
2019-03-29T03:15:50.569Z,6.85
2019-03-29T03:16:24.303Z,6.90
2019-03-29T03:16:57.348Z,7.00
2019-03-29T03:17:30.485Z,6.65
2019-03-29T03:18:03.703Z,6.85
2019-03-29T03:18:37.117Z,7.03
2019-03-29T03:19:10.147Z,6.40
2019-03-29T03:19:43.162Z,5.40
2019-03-29T03:20:16.934Z,6.60
2019-03-29T03:20:50.319Z,7.12
2019-03-29T03:21:23.330Z,6.78
2019-03-29T03:21:56.335Z,7.00
2019-03-29T03:22:29.405Z,6.83
2019-03-29T03:23:23.700Z,7.10
2019-03-29T03:23:56.725Z,7.42
2019-03-29T03:24:29.770Z,8.30
2019-03-29T03:25:03.024Z,7.70
2019-03-29T03:25:36.055Z,7.33
2019-03-29T03:26:09.078Z,8.18
2019-03-29T03:26:42.122Z,6.30
2019-03-29T03:27:15.116Z,5.92
2019-03-29T03:27:48.159Z,5.70
2019-03-29T03:28:21.980Z,6.10
2019-03-29T03:28:55.395Z,5.70
2019-03-29T03:29:28.420Z,5.72
2019-03-29T03:30:01.904Z,5.55
2019-03-29T03:30:34.873Z,5.60
2019-03-29T03:31:07.883Z,5.80
2019-03-29T03:31:40.902Z,5.65
2019-03-29T03:32:13.942Z,5.40
2019-03-29T03:32:47.244Z,5.05
2019-03-29T03:33:20.297Z,5.28
2019-03-29T03:33:53.312Z,5.67
2019-03-29T03:34:26.837Z,5.70
2019-03-29T03:34:59.877Z,5.83
2019-03-29T03:35:32.886Z,5.37
2019-03-29T03:36:06.382Z,5.75
2019-03-29T03:36:39.804Z,5.45
2019-03-29T03:37:13.152Z,5.22
2019-03-29T03:37:46.185Z,5.67
2019-03-29T03:38:19.205Z,5.55
2019-03-29T03:38:52.265Z,6.10
2019-03-29T03:39:32.157Z,6.08
2019-03-29T03:40:00.631Z,5.33
2019-03-29T03:40:34.062Z,5.37
2019-03-29T03:41:07.093Z,5.65
2019-03-29T03:41:40.119Z,5.67
2019-03-29T03:42:13.155Z,5.72
2019-03-29T03:42:46.181Z,5.60
2019-03-29T03:43:19.200Z,5.08
2019-03-29T03:43:52.520Z,5.78
2019-03-29T03:44:26.111Z,5.90
2019-03-29T03:44:59.653Z,5.50
2019-03-29T03:45:32.670Z,5.42
2019-03-29T03:46:05.695Z,5.10
2019-03-29T03:46:38.856Z,5.67
2019-03-29T03:47:12.228Z,5.50
2019-03-29T03:47:45.250Z,5.80
2019-03-29T03:48:18.275Z,5.58
2019-03-29T03:48:51.296Z,5.50
2019-03-29T03:49:24.701Z,6.00
2019-03-29T03:50:00.934Z,5.20
2019-03-29T03:50:39.517Z,5.70
2019-03-29T03:51:12.545Z,6.30
2019-03-29T03:51:45.983Z,5.65
2019-03-29T03:52:19.004Z,5.85
2019-03-29T03:52:52.396Z,5.50
2019-03-29T03:53:25.433Z,5.67
2019-03-29T03:53:58.447Z,5.70
2019-03-29T03:54:32.471Z,6.15
2019-03-29T03:55:06.796Z,5.00
2019-03-29T03:55:40.458Z,5.58
2019-03-29T03:56:14.764Z,5.50
2019-03-29T03:56:50.101Z,4.92
2019-03-29T03:57:24.433Z,5.75
2019-03-29T03:57:58.182Z,5.25
2019-03-29T03:58:32.909Z,4.97
2019-03-29T03:59:06.337Z,5.10
2019-03-29T03:59:39.870Z,6.08
2019-03-29T04:00:13.032Z,6.53
2019-03-29T04:00:54.045Z,5.10
2019-03-29T04:01:27.050Z,5.80
2019-03-29T04:02:00.072Z,6.50
2019-03-29T04:02:33.096Z,5.37
2019-03-29T04:03:06.246Z,5.95
2019-03-29T04:03:39.274Z,6.05
2019-03-29T04:04:12.314Z,5.75
2019-03-29T04:04:45.320Z,6.12
2019-03-29T04:05:18.775Z,5.20
2019-03-29T04:05:52.940Z,6.72
2019-03-29T04:06:26.737Z,5.72
2019-03-29T04:07:00.152Z,5.47
2019-03-29T04:07:33.169Z,5.28
2019-03-29T04:08:06.201Z,6.45
2019-03-29T04:08:39.573Z,4.80
2019-03-29T04:09:12.591Z,5.80
2019-03-29T04:09:50.212Z,5.37
2019-03-29T04:10:20.783Z,5.20
2019-03-29T04:10:53.857Z,5.25
2019-03-29T04:11:27.244Z,5.85
2019-03-29T04:12:00.587Z,5.33
2019-03-29T04:12:34.111Z,6.33
2019-03-29T04:13:07.320Z,5.55
2019-03-29T04:13:40.341Z,6.40
2019-03-29T04:14:13.377Z,5.83
2019-03-29T04:14:46.403Z,6.25
2019-03-29T04:15:19.795Z,5.28
2019-03-29T04:15:53.213Z,6.28
2019-03-29T04:16:26.266Z,5.60
2019-03-29T04:16:59.285Z,6.50
2019-03-29T04:17:32.303Z,5.92
2019-03-29T04:18:05.906Z,5.95
2019-03-29T04:18:38.935Z,6.67
2019-03-29T04:19:11.955Z,5.90
2019-03-29T04:19:45.608Z,6.30
2019-03-29T04:20:18.623Z,6.08
2019-03-29T04:20:51.663Z,5.65
2019-03-29T04:21:25.112Z,5.65
2019-03-29T04:21:58.294Z,5.42
2019-03-29T04:22:31.317Z,5.70
2019-03-29T04:23:04.325Z,6.60
2019-03-29T04:23:37.361Z,5.85
2019-03-29T04:24:11.220Z,6.75
2019-03-29T04:24:44.541Z,6.80
2019-03-29T04:25:17.900Z,7.20
2019-03-29T04:25:51.401Z,7.33
2019-03-29T04:26:25.154Z,6.97
2019-03-29T04:26:59.762Z,6.60
2019-03-29T04:27:32.810Z,6.60
2019-03-29T04:28:06.249Z,6.17
2019-03-29T04:28:39.266Z,7.22
2019-03-29T04:29:12.733Z,7.35
2019-03-29T04:29:45.756Z,7.25
2019-03-29T04:30:18.779Z,6.35
2019-03-29T04:30:51.943Z,7.05
2019-03-29T04:31:25.316Z,6.50
2019-03-29T04:31:58.347Z,5.85
2019-03-29T04:32:31.811Z,7.37
2019-03-29T04:33:05.203Z,6.45
2019-03-29T04:33:38.218Z,7.17
2019-03-29T04:34:11.231Z,6.83
2019-03-29T04:34:44.255Z,6.62
2019-03-29T04:35:17.298Z,6.25
2019-03-29T04:35:50.319Z,6.70
2019-03-29T04:36:23.348Z,6.95
2019-03-29T04:36:56.684Z,6.70
2019-03-29T04:37:29.707Z,7.22
2019-03-29T04:38:02.739Z,7.37
2019-03-29T04:38:36.160Z,7.58
2019-03-29T04:39:09.201Z,7.25
2019-03-29T04:39:42.968Z,7.58
2019-03-29T04:40:16.475Z,7.30
2019-03-29T04:40:49.860Z,6.53
2019-03-29T04:41:23.021Z,6.95
2019-03-29T04:41:56.043Z,7.22
2019-03-29T04:42:29.160Z,6.83
2019-03-29T04:43:02.196Z,7.08
2019-03-29T04:43:35.243Z,7.05
2019-03-29T04:44:08.380Z,7.10
2019-03-29T04:44:41.543Z,7.22
2019-03-29T04:45:14.948Z,6.75
2019-03-29T04:45:47.976Z,7.30
2019-03-29T04:46:21.059Z,6.40
2019-03-29T04:46:54.090Z,6.35
2019-03-29T04:47:27.751Z,6.40
2019-03-29T04:48:00.812Z,6.90
2019-03-29T04:48:33.834Z,6.97
2019-03-29T04:49:07.244Z,6.70
2019-03-29T04:49:41.006Z,5.95
2019-03-29T04:50:14.043Z,6.67
2019-03-29T04:50:47.066Z,6.87
2019-03-29T04:51:20.088Z,7.50
2019-03-29T04:51:53.108Z,6.72
2019-03-29T04:52:26.143Z,6.70
2019-03-29T04:52:59.886Z,7.20
2019-03-29T04:53:33.237Z,6.75
2019-03-29T04:54:06.644Z,6.55
2019-03-29T04:54:39.666Z,7.90
2019-03-29T04:55:12.728Z,7.42
2019-03-29T04:55:45.746Z,7.90
2019-03-29T04:56:18.773Z,7.25
2019-03-29T04:56:52.311Z,7.55
2019-03-29T04:57:25.705Z,7.62
2019-03-29T04:57:59.055Z,6.55
2019-03-29T04:58:32.082Z,6.78
2019-03-29T04:59:05.411Z,6.87
2019-03-29T04:59:38.441Z,8.05
2019-03-29T05:00:11.657Z,7.37
2019-03-29T05:00:44.716Z,7.83
2019-03-29T05:01:17.850Z,7.75
2019-03-29T05:01:50.884Z,7.87
2019-03-29T05:02:23.899Z,7.37
2019-03-29T05:02:57.011Z,7.17
2019-03-29T05:03:30.032Z,8.18
2019-03-29T05:04:03.141Z,8.08
2019-03-29T05:04:36.306Z,7.92
2019-03-29T05:05:09.540Z,7.53
2019-03-29T05:05:42.836Z,6.92
2019-03-29T05:06:16.220Z,7.15
2019-03-29T05:06:49.241Z,8.20
2019-03-29T05:07:22.603Z,7.20
2019-03-29T05:07:56.080Z,7.10
2019-03-29T05:08:29.440Z,7.85
2019-03-29T05:09:04.044Z,6.95
2019-03-29T05:09:37.458Z,7.53
2019-03-29T05:10:20.931Z,7.60
2019-03-29T05:10:45.411Z,7.90
2019-03-29T05:11:18.484Z,7.80
2019-03-29T05:11:51.515Z,7.70
2019-03-29T05:12:24.861Z,7.58
2019-03-29T05:12:59.632Z,7.80
2019-03-29T05:13:33.197Z,7.20
2019-03-29T05:14:06.558Z,8.15
2019-03-29T05:14:39.600Z,7.47
2019-03-29T05:15:12.992Z,6.87
2019-03-29T05:15:46.396Z,7.35
2019-03-29T05:16:19.781Z,8.33
2019-03-29T05:16:52.831Z,7.62
2019-03-29T05:17:25.847Z,7.92
2019-03-29T05:17:59.317Z,7.55
2019-03-29T05:18:32.594Z,7.30
2019-03-29T05:19:05.606Z,7.15
2019-03-29T05:19:39.119Z,7.28
2019-03-29T05:20:12.553Z,7.33
2019-03-29T05:20:46.138Z,8.10
2019-03-29T05:21:19.116Z,7.95
2019-03-29T05:21:52.411Z,8.60
2019-03-29T05:22:26.655Z,7.72
2019-03-29T05:22:59.614Z,8.50
2019-03-29T05:23:33.434Z,8.53
2019-03-29T05:24:06.454Z,7.67
2019-03-29T05:24:39.471Z,9.40
2019-03-29T05:25:12.514Z,8.28
2019-03-29T05:25:45.548Z,9.33
2019-03-29T05:26:18.944Z,8.33
2019-03-29T05:26:52.290Z,8.98
2019-03-29T05:27:25.330Z,8.85
2019-03-29T05:27:58.501Z,7.80
2019-03-29T05:28:31.823Z,8.88
2019-03-29T05:29:04.835Z,9.48
2019-03-29T05:29:37.867Z,9.20
2019-03-29T05:30:11.092Z,9.35
2019-03-29T05:30:44.124Z,10.40
2019-03-29T05:31:17.411Z,11.28
2019-03-29T05:31:53.580Z,10.65
2019-03-29T05:32:25.721Z,10.05
2019-03-29T05:32:59.096Z,11.45
2019-03-29T05:33:32.474Z,11.70
2019-03-29T05:34:05.607Z,10.00
2019-03-29T05:34:38.639Z,10.95
2019-03-29T05:35:11.658Z,11.05
2019-03-29T05:35:44.986Z,10.20
2019-03-29T05:36:18.002Z,11.50
2019-03-29T05:36:51.039Z,10.45
2019-03-29T05:37:24.067Z,11.38
2019-03-29T05:37:57.074Z,11.05
2019-03-29T05:38:30.461Z,12.03
2019-03-29T05:39:05.091Z,10.70
2019-03-29T05:39:38.115Z,10.58
2019-03-29T05:40:11.535Z,11.63
2019-03-29T05:40:44.578Z,12.47
2019-03-29T05:41:18.016Z,13.50
2019-03-29T05:41:51.030Z,14.40
2019-03-29T05:42:24.065Z,13.80
2019-03-29T05:42:57.086Z,15.20
2019-03-29T05:43:30.111Z,18.80
2019-03-29T05:44:03.551Z,25.55
2019-03-29T05:44:36.629Z,27.75
2019-03-29T05:45:10.055Z,24.12
2019-03-29T05:45:43.474Z,21.85
2019-03-29T05:46:16.506Z,19.25
2019-03-29T05:46:49.534Z,18.73
2019-03-29T05:47:22.565Z,18.35
2019-03-29T05:47:55.913Z,20.55
2019-03-29T05:48:28.944Z,20.75
2019-03-29T05:49:02.743Z,22.87
2019-03-29T05:49:35.785Z,24.98
2019-03-29T05:50:09.419Z,24.98
2019-03-29T05:50:42.440Z,23.27
2019-03-29T05:51:15.833Z,22.10
2019-03-29T05:51:48.849Z,21.12
2019-03-29T05:52:21.869Z,20.10
2019-03-29T05:52:54.902Z,21.15
2019-03-29T05:53:27.919Z,20.43
2019-03-29T05:54:00.947Z,18.87
2019-03-29T05:54:34.009Z,19.32
2019-03-29T05:55:07.630Z,17.60
2019-03-29T05:55:40.684Z,16.67
2019-03-29T05:56:13.722Z,16.50
2019-03-29T05:56:46.750Z,16.25
2019-03-29T05:57:20.148Z,14.53
2019-03-29T05:57:53.164Z,15.65
2019-03-29T05:58:26.209Z,16.10
2019-03-29T05:58:59.229Z,16.12
2019-03-29T05:59:32.246Z,13.70
2019-03-29T06:00:08.434Z,15.28
2019-03-29T06:00:41.499Z,15.30
2019-03-29T06:01:14.530Z,18.25
2019-03-29T06:01:47.924Z,18.80
2019-03-29T06:02:21.080Z,17.32
2019-03-29T06:02:54.107Z,19.25
2019-03-29T06:03:27.145Z,19.45
2019-03-29T06:04:00.171Z,18.52
2019-03-29T06:04:33.199Z,17.60
2019-03-29T06:05:06.585Z,17.77
2019-03-29T06:05:39.595Z,16.57
2019-03-29T06:06:13.467Z,16.90
2019-03-29T06:06:46.528Z,16.62
2019-03-29T06:07:19.550Z,19.50
2019-03-29T06:07:52.585Z,18.42
2019-03-29T06:08:25.606Z,18.90
2019-03-29T06:08:58.754Z,19.12
2019-03-29T06:09:34.816Z,17.90
2019-03-29T06:10:06.962Z,18.50
2019-03-29T06:10:48.728Z,18.57
2019-03-29T06:11:14.828Z,18.65
2019-03-29T06:11:48.440Z,21.95
2019-03-29T06:12:21.484Z,21.82
2019-03-29T06:12:54.896Z,23.25
2019-03-29T06:13:28.009Z,26.55
2019-03-29T06:14:01.451Z,23.10
2019-03-29T06:14:34.482Z,22.80
2019-03-29T06:15:07.817Z,25.90
2019-03-29T06:15:40.840Z,26.17
2019-03-29T06:16:14.233Z,24.55
2019-03-29T06:16:47.737Z,24.70
2019-03-29T06:17:21.126Z,24.02
2019-03-29T06:17:54.192Z,22.58
2019-03-29T06:18:27.211Z,22.40
2019-03-29T06:19:00.556Z,22.42
2019-03-29T06:19:33.587Z,21.20
2019-03-29T06:20:07.114Z,19.95
2019-03-29T06:20:40.484Z,20.35
2019-03-29T06:21:13.775Z,19.67
2019-03-29T06:21:47.135Z,21.20
2019-03-29T06:22:20.545Z,20.77
2019-03-29T06:22:53.583Z,20.17
2019-03-29T06:23:26.626Z,19.75
2019-03-29T06:24:00.084Z,20.85
2019-03-29T06:24:33.455Z,20.55
2019-03-29T06:25:06.716Z,20.40
2019-03-29T06:25:39.722Z,21.05
2019-03-29T06:26:12.748Z,21.37
2019-03-29T06:26:45.761Z,19.32
2019-03-29T06:27:18.786Z,20.45
2019-03-29T06:27:51.808Z,19.67
2019-03-29T06:28:24.842Z,22.42
2019-03-29T06:28:58.234Z,20.55
2019-03-29T06:29:31.255Z,19.48
2019-03-29T06:30:05.291Z,20.35
2019-03-29T06:30:38.263Z,20.70
2019-03-29T06:31:11.598Z,18.75
2019-03-29T06:31:45.372Z,19.98
2019-03-29T06:32:18.398Z,19.27
2019-03-29T06:32:51.428Z,19.77
2019-03-29T06:33:24.451Z,19.73
2019-03-29T06:33:57.472Z,18.50
2019-03-29T06:34:30.902Z,19.42
2019-03-29T06:35:04.819Z,19.42
2019-03-29T06:35:39.642Z,21.12
2019-03-29T06:36:14.784Z,20.30
2019-03-29T06:36:49.553Z,20.37
2019-03-29T06:37:23.387Z,20.10
2019-03-29T06:37:56.611Z,19.25
2019-03-29T06:38:32.319Z,21.30
2019-03-29T06:39:06.428Z,20.00
2019-03-29T06:39:40.000Z,21.75
2019-03-29T06:40:22.630Z,21.95
2019-03-29T06:41:02.704Z,21.27
2019-03-29T06:41:30.835Z,21.57
2019-03-29T06:42:04.263Z,21.80
2019-03-29T06:42:37.678Z,22.05
2019-03-29T06:43:10.694Z,21.33
2019-03-29T06:43:44.156Z,21.80
2019-03-29T06:44:17.625Z,20.30
2019-03-29T06:44:50.954Z,20.48
2019-03-29T06:45:23.990Z,21.33
2019-03-29T06:45:57.430Z,21.60
2019-03-29T06:46:30.459Z,19.92
2019-03-29T06:47:03.480Z,21.87
2019-03-29T06:47:36.798Z,19.82
2019-03-29T06:48:09.830Z,20.70
2019-03-29T06:48:42.859Z,20.60
2019-03-29T06:49:15.925Z,20.27
2019-03-29T06:49:48.950Z,20.43
2019-03-29T06:50:22.027Z,21.48
2019-03-29T06:50:55.181Z,18.85
2019-03-29T06:51:28.219Z,21.02
2019-03-29T06:52:01.241Z,20.82
2019-03-29T06:52:34.279Z,20.72
2019-03-29T06:53:08.036Z,19.62
2019-03-29T06:53:41.475Z,20.30
2019-03-29T06:54:14.497Z,20.48
2019-03-29T06:54:47.873Z,21.33
2019-03-29T06:55:22.185Z,19.98
2019-03-29T06:55:55.227Z,20.62
2019-03-29T06:56:28.263Z,21.57
2019-03-29T06:57:01.275Z,19.75
2019-03-29T06:57:34.706Z,19.92
2019-03-29T06:58:08.025Z,21.25
2019-03-29T06:58:41.348Z,20.77
2019-03-29T06:59:14.370Z,21.45
2019-03-29T06:59:48.148Z,20.60
2019-03-29T07:00:21.167Z,18.95
2019-03-29T07:00:54.235Z,21.27
2019-03-29T07:01:27.278Z,21.80
2019-03-29T07:02:01.151Z,20.60
2019-03-29T07:02:34.549Z,18.90
2019-03-29T07:03:07.571Z,21.05
2019-03-29T07:03:40.591Z,20.88
2019-03-29T07:04:13.617Z,20.35
2019-03-29T07:04:46.656Z,22.07
2019-03-29T07:05:19.679Z,19.82
2019-03-29T07:05:53.495Z,19.87
2019-03-29T07:06:30.356Z,18.75
2019-03-29T07:07:01.870Z,21.75
2019-03-29T07:07:34.882Z,20.92
2019-03-29T07:08:07.915Z,20.30
2019-03-29T07:08:40.952Z,21.50
2019-03-29T07:09:14.137Z,20.35
2019-03-29T07:09:47.630Z,22.55
2019-03-29T07:10:20.949Z,19.95
2019-03-29T07:10:53.994Z,21.33
2019-03-29T07:11:27.006Z,20.30
2019-03-29T07:12:00.030Z,20.70
2019-03-29T07:12:33.452Z,19.32
2019-03-29T07:13:06.840Z,21.80
2019-03-29T07:13:39.856Z,20.55
2019-03-29T07:14:13.721Z,21.35
2019-03-29T07:14:46.731Z,20.17
2019-03-29T07:15:19.763Z,22.00
2019-03-29T07:15:53.186Z,20.57
2019-03-29T07:16:26.510Z,21.52
2019-03-29T07:16:59.893Z,19.92
2019-03-29T07:17:32.898Z,20.15
2019-03-29T07:18:05.963Z,19.92
2019-03-29T07:18:39.742Z,20.37
2019-03-29T07:19:12.767Z,20.72
2019-03-29T07:19:46.089Z,21.35
2019-03-29T07:20:19.145Z,22.27